Time;durP1;ratioP1;P1;durP2;ratioP2;P2;SDS_P1;SDS_P2;PMS_P1;PMS_P2;Temp;Humidity;BMP_temperature;BMP_pressure;BME280_temperature;BME280_humidity;BME280_pressure;Samples;Min_cycle;Max_cycle;Signal;HPM_P1;HPM_P2
2022/01/03 00:03:14;;;;;;;4.80;3.60;;;;;;;9.23;79.63;98892.77;208179;1317;140235;-73
2022/01/03 00:08:20;;;;;;;6.10;3.90;;;;;;;9.20;79.60;98893.91;207002;1317;141712;-71
2022/01/03 00:13:29;;;;;;;5.90;2.80;;;;;;;9.18;79.43;98879.35;208886;1314;141029;-73
2022/01/03 00:18:36;;;;;;;4.00;3.60;;;;;;;9.12;79.45;98881.47;208778;1318;140963;-76
2022/01/03 00:23:50;;;;;;;10.40;5.50;;;;;;;9.07;79.37;98883.91;208935;1318;140848;-77
2022/01/03 00:29:05;;;;;;;6.90;3.50;;;;;;;9.02;79.31;98880.02;207243;1316;140995;-74
2022/01/03 00:34:10;;;;;;;7.80;3.70;;;;;;;8.96;79.55;98875.83;207052;1315;161903;-70
2022/01/03 00:39:23;;;;;;;4.50;3.90;;;;;;;8.93;79.45;98877.42;207502;1317;140642;-74
2022/01/03 00:44:29;;;;;;;7.60;4.60;;;;;;;8.87;79.39;98878.93;207161;1316;141285;-77
2022/01/03 00:49:41;;;;;;;6.90;4.30;;;;;;;8.79;79.63;98885.97;207279;1317;140837;-72
2022/01/03 00:55:09;;;;;;;;;;;;;;;;;;;;;
2022/01/03 01:00:19;;;;;;;8.50;3.70;;;;;;;8.67;79.49;98870.09;206715;1317;142684;-72
2022/01/03 01:05:26;;;;;;;6.70;3.60;;;;;;;8.61;79.46;98878.50;208073;1318;141120;-70
2022/01/03 01:10:32;;;;;;;10.00;5.70;;;;;;;8.57;79.62;98877.70;207033;1316;141216;-74
2022/01/03 01:15:41;;;;;;;4.50;4.00;;;;;;;8.53;79.59;98876.75;207018;1316;140508;-73
2022/01/03 01:20:56;;;;;;;9.50;4.70;;;;;;;8.46;79.61;98870.89;207960;1315;142811;-71
2022/01/03 01:31:23;;;;;;;8.30;2.90;;;;;;;8.32;80.00;98869.70;207974;1315;141178;-75
2022/01/03 01:36:28;;;;;;;7.50;4.10;;;;;;;8.28;79.92;98868.17;209134;1316;140329;-75
2022/01/03 01:41:37;;;;;;;4.30;3.90;;;;;;;8.29;79.56;98874.30;207461;1317;140464;-71
2022/01/03 01:46:52;;;;;;;5.80;5.30;;;;;;;8.25;79.80;98870.85;207241;1315;140486;-71
2022/01/03 01:52:13;;;;;;;;;;;;;;;;;;;;;
2022/01/03 01:57:24;;;;;;;5.30;4.60;;;;;;;8.25;80.31;98867.19;208740;1317;140794;-71
2022/01/03 02:02:35;;;;;;;8.40;4.00;;;;;;;8.31;80.10;98873.02;209603;1318;140261;-75
2022/01/03 02:08:02;;;;;;;3.80;3.40;;;;;;;8.34;79.81;98864.27;208867;1317;140030;-79
2022/01/03 02:13:36;;;;;;;6.90;4.00;;;;;;;8.36;80.12;98855.70;208955;1318;139875;-73
2022/01/03 02:18:44;;;;;;;7.60;4.00;;;;;;;8.41;80.07;98844.16;209396;1316;141106;-77
2022/01/03 02:23:56;;;;;;;4.40;3.80;;;;;;;8.42;79.70;98848.90;206910;1315;140174;-70
2022/01/03 02:29:14;;;;;;;6.20;4.40;;;;;;;8.35;79.83;98840.52;206901;1318;142252;-72
2022/01/03 02:34:18;;;;;;;4.30;3.80;;;;;;;8.29;80.08;98843.34;207348;1316;141041;-72
2022/01/03 02:39:25;;;;;;;4.50;4.00;;;;;;;8.23;80.09;98834.77;207935;1316;140314;-72
2022/01/03 02:44:28;;;;;;;4.10;3.50;;;;;;;8.20;80.33;98831.48;207275;1315;139672;-74
2022/01/03 02:49:47;;;;;;;4.80;4.00;;;;;;;8.15;80.08;98838.41;207414;1316;140393;-70
2022/01/03 02:54:51;;;;;;;9.90;4.30;;;;;;;8.17;80.37;98839.80;207155;1316;139618;-73
2022/01/03 02:59:58;;;;;;;7.50;3.80;;;;;;;8.20;80.58;98843.16;207243;1316;139360;-74
2022/01/03 03:05:07;;;;;;;5.70;4.40;;;;;;;8.22;80.33;98835.66;207911;1318;140947;-75
2022/01/03 03:10:22;;;;;;;6.50;4.20;;;;;;;8.25;80.30;98833.02;206979;1318;140763;-73
2022/01/03 03:15:28;;;;;;;3.70;3.40;;;;;;;8.25;80.70;98825.13;207803;1318;140779;-72
2022/01/03 03:20:37;;;;;;;6.80;4.30;;;;;;;8.24;80.66;98812.80;207119;1316;141200;-74
2022/01/03 03:25:43;;;;;;;5.30;3.50;;;;;;;8.24;80.48;98801.49;207687;1316;140694;-77
2022/01/03 03:31:01;;;;;;;5.20;3.40;;;;;;;8.25;80.45;98793.54;207701;1315;139820;-78
2022/01/03 03:36:07;;;;;;;3.40;2.80;;;;;;;8.25;80.41;98797.52;206989;1318;140594;-78
2022/01/03 03:41:10;;;;;;;5.70;3.50;;;;;;;8.27;80.38;98793.65;207258;1318;140577;-74
2022/01/03 03:46:13;;;;;;;10.10;3.70;;;;;;;8.27;80.61;98793.45;207032;1315;140306;-77
2022/01/03 03:51:54;;;;;;;5.60;3.50;;;;;;;8.26;80.46;98784.94;207482;1315;142023;-69
2022/01/03 03:56:57;;;;;;;4.60;3.00;;;;;;;8.24;80.31;98781.26;208787;1317;140542;-70
2022/01/03 04:02:00;;;;;;;4.40;3.10;;;;;;;8.21;80.34;98768.84;207794;1316;140552;-71
2022/01/03 04:07:03;;;;;;;6.70;3.90;;;;;;;8.18;80.45;98758.50;208020;1315;140234;-71
2022/01/03 04:12:18;;;;;;;6.60;4.30;;;;;;;8.18;79.98;98754.52;207769;1316;142060;-70
2022/01/03 04:17:20;;;;;;;6.70;3.70;;;;;;;8.17;80.37;98756.24;209034;1317;140333;-71
2022/01/03 04:22:23;;;;;;;6.70;3.60;;;;;;;8.16;80.33;98753.09;208365;1318;139427;-72
2022/01/03 04:27:25;;;;;;;5.20;3.40;;;;;;;8.18;80.34;98748.52;209389;1317;140475;-71
2022/01/03 04:32:37;;;;;;;3.50;2.80;;;;;;;8.18;80.19;98751.90;207738;1317;141687;-69
2022/01/03 04:37:45;;;;;;;4.40;4.00;;;;;;;8.15;80.11;98751.55;207854;1315;140466;-70
2022/01/03 04:42:51;;;;;;;6.90;5.00;;;;;;;8.12;80.35;98742.52;207493;1315;141086;-70
2022/01/03 04:47:54;;;;;;;4.10;3.20;;;;;;;8.09;80.37;98737.70;207282;1315;141170;-71
2022/01/03 04:52:57;;;;;;;4.10;3.70;;;;;;;8.10;80.68;98730.02;208469;1315;142482;-71
2022/01/03 04:58:02;;;;;;;4.20;3.00;;;;;;;8.14;80.22;98721.59;207719;1316;142918;-68
2022/01/03 05:03:07;;;;;;;6.30;3.90;;;;;;;8.21;80.83;98718.82;207300;1315;141901;-71
2022/01/03 05:08:26;;;;;;;9.60;3.90;;;;;;;8.23;80.85;98707.77;207816;1316;141467;-69
2022/01/03 05:13:35;;;;;;;5.40;2.70;;;;;;;8.25;80.76;98697.59;207401;1309;141775;-70
2022/01/03 05:18:37;;;;;;;3.90;3.30;;;;;;;8.29;80.63;98696.04;208251;1317;140872;-71
2022/01/03 05:23:41;;;;;;;4.70;2.10;;;;;;;8.29;80.79;98693.12;207603;1316;141155;-71
2022/01/03 05:28:45;;;;;;;3.80;3.20;;;;;;;8.30;80.69;98682.72;207204;1316;142477;-72
2022/01/03 05:33:52;;;;;;;3.10;2.90;;;;;;;8.35;80.84;98679.57;207381;1317;142173;-72
2022/01/03 05:38:58;;;;;;;3.80;2.50;;;;;;;8.37;80.76;98670.96;208143;1315;141345;-71
2022/01/03 05:44:04;;;;;;;11.80;3.80;;;;;;;8.37;80.68;98674.20;207181;1317;140493;-72
2022/01/03 05:49:08;;;;;;;3.10;2.80;;;;;;;8.37;80.87;98675.58;208949;1313;140292;-74
2022/01/03 05:54:13;;;;;;;2.90;2.60;;;;;;;8.40;80.60;98669.46;207203;1318;416499;-71
2022/01/03 05:59:18;;;;;;;5.90;3.90;;;;;;;8.39;80.80;98666.79;208038;1316;139852;-68
2022/01/03 06:04:35;;;;;;;4.90;4.10;;;;;;;8.35;80.86;98655.20;209163;1315;140488;-71
2022/01/03 06:09:38;;;;;;;9.10;3.70;;;;;;;8.37;80.89;98651.14;207566;1316;141739;-71
2022/01/03 06:14:47;;;;;;;7.80;5.30;;;;;;;8.37;80.91;98651.68;208304;1316;140812;-69
2022/01/03 06:19:49;;;;;;;9.80;5.30;;;;;;;8.35;81.41;98652.77;208876;1316;143173;-71
2022/01/03 06:24:51;;;;;;;6.50;4.90;;;;;;;8.31;81.37;98657.58;208772;1316;141190;-70
2022/01/03 06:29:53;;;;;;;5.40;4.50;;;;;;;8.26;81.43;98658.30;208975;1316;141063;-71
2022/01/03 06:34:55;;;;;;;5.80;4.60;;;;;;;8.23;81.27;98658.11;208802;1318;140618;-71
2022/01/03 06:40:06;;;;;;;3.30;3.00;;;;;;;8.15;81.65;98659.01;208765;1318;139319;-71
2022/01/03 06:45:11;;;;;;;5.40;4.30;;;;;;;8.07;81.55;98663.14;207625;1316;140618;-71
2022/01/03 06:50:17;;;;;;;6.10;3.90;;;;;;;8.02;81.59;98669.43;207115;1316;140122;-70
2022/01/03 06:55:23;;;;;;;3.30;2.70;;;;;;;7.90;81.76;98674.64;206888;1316;140601;-73
2022/01/03 07:00:31;;;;;;;4.90;3.60;;;;;;;7.84;82.42;98684.27;207902;1318;140798;-72
2022/01/03 07:05:40;;;;;;;4.80;4.00;;;;;;;7.83;82.38;98689.38;207796;1318;140492;-72
2022/01/03 07:10:46;;;;;;;4.50;4.00;;;;;;;7.81;82.89;98691.90;206932;1316;139874;-71
2022/01/03 07:21:13;;;;;;;5.80;3.80;;;;;;;7.73;83.10;98699.34;207211;1316;140038;-70
2022/01/03 07:26:15;;;;;;;5.90;4.50;;;;;;;7.72;82.92;98709.27;207508;1316;140210;-70
2022/01/03 07:31:19;;;;;;;3.40;2.20;;;;;;;7.70;83.19;98719.68;207254;1316;140591;-71
2022/01/03 07:36:34;;;;;;;5.20;2.70;;;;;;;7.63;83.33;98723.39;207206;1315;139575;-69
2022/01/03 07:41:39;;;;;;;2.60;2.40;;;;;;;7.57;83.49;98727.48;206915;1315;141514;-69
2022/01/03 07:46:42;;;;;;;3.30;3.00;;;;;;;7.53;83.54;98724.81;206986;1316;140906;-69
2022/01/03 07:51:45;;;;;;;1.80;1.60;;;;;;;7.46;83.12;98721.77;207714;1316;141538;-71
2022/01/03 07:56:48;;;;;;;1.70;1.30;;;;;;;7.37;83.04;98711.74;207019;1316;140724;-71
2022/01/03 08:01:55;;;;;;;2.00;1.90;;;;;;;7.33;83.19;98705.64;207408;1316;139773;-71
2022/01/03 08:06:57;;;;;;;7.60;7.00;;;;;;;7.28;83.26;98711.46;207687;1316;140019;-71
2022/01/03 08:12:00;;;;;;;3.60;3.40;;;;;;;7.25;83.26;98708.16;207063;1316;140225;-70
2022/01/03 08:17:06;;;;;;;4.80;2.90;;;;;;;7.25;83.56;98700.85;207569;1316;140500;-70
2022/01/03 08:22:21;;;;;;;;;;;;;;;;;;;;;
2022/01/03 08:27:24;;;;;;;3.50;2.80;;;;;;;7.30;83.79;98687.58;209269;1318;140855;-71
2022/01/03 08:32:27;;;;;;;3.70;2.60;;;;;;;7.31;84.08;98685.26;208516;1316;151578;-69
2022/01/03 08:37:30;;;;;;;4.20;3.70;;;;;;;7.34;83.32;98682.38;208375;1317;143333;-68
2022/01/03 08:42:36;;;;;;;2.50;2.30;;;;;;;7.32;83.65;98679.04;208466;1315;141274;-69
2022/01/03 08:47:39;;;;;;;4.90;4.20;;;;;;;7.32;83.79;98683.36;207858;1316;140721;-69
2022/01/03 08:52:42;;;;;;;5.60;4.80;;;;;;;7.31;84.29;98683.84;207111;1315;140467;-69
2022/01/03 08:57:46;;;;;;;4.10;2.70;;;;;;;7.36;84.10;98683.37;207889;1316;141208;-69
2022/01/03 09:02:49;;;;;;;2.70;2.50;;;;;;;7.37;84.22;98678.29;208227;1316;140697;-69
2022/01/03 09:07:56;;;;;;;3.20;2.90;;;;;;;7.43;84.39;98677.39;208177;1318;141684;-69
2022/01/03 09:13:01;;;;;;;3.80;2.80;;;;;;;7.54;84.52;98677.00;207128;1316;141184;-70
2022/01/03 09:18:04;;;;;;;5.00;3.20;;;;;;;7.60;84.48;98668.14;207538;1316;142184;-70
2022/01/03 09:23:12;;;;;;;5.00;3.80;;;;;;;7.63;84.37;98666.71;208006;1316;140500;-70
2022/01/03 09:33:38;;;;;;;3.50;2.50;;;;;;;7.59;84.57;98663.50;207016;1313;141523;-69
2022/01/03 09:38:41;;;;;;;2.50;2.00;;;;;;;7.55;84.66;98660.83;207360;1316;141435;-71
2022/01/03 09:44:21;;;;;;;2.40;2.10;;;;;;;7.56;84.73;98654.44;207216;1315;141241;-69
2022/01/03 09:49:26;;;;;;;2.60;2.40;;;;;;;7.57;84.83;98652.91;207000;1315;141474;-71
2022/01/03 09:54:47;;;;;;;3.30;2.00;;;;;;;7.54;84.65;98657.17;207600;1316;142600;-70
2022/01/03 10:00:01;;;;;;;1.70;1.60;;;;;;;7.54;84.60;98658.11;207508;1316;140514;-70
2022/01/03 10:05:05;;;;;;;1.90;1.80;;;;;;;7.48;84.91;98653.20;207597;1318;140605;-71
2022/01/03 10:10:11;;;;;;;1.90;1.70;;;;;;;7.42;84.58;98646.52;207548;1316;139941;-70
2022/01/03 10:15:14;;;;;;;1.40;1.00;;;;;;;7.38;84.94;98651.91;207027;1318;140534;-69
2022/01/03 10:20:19;;;;;;;3.20;1.20;;;;;;;7.37;84.70;98651.94;207306;1316;140447;-69
2022/01/03 10:25:23;;;;;;;2.20;1.10;;;;;;;7.35;84.74;98651.70;207732;1316;139891;-69
2022/01/03 10:30:45;;;;;;;2.00;1.00;;;;;;;7.39;84.55;98656.05;207185;1317;141477;-68
2022/01/03 10:35:56;;;;;;;2.30;1.60;;;;;;;7.40;84.33;98650.20;207494;1315;139858;-70
2022/01/03 10:41:43;;;;;;;1.40;1.00;;;;;;;7.42;84.71;98648.11;208553;1317;139831;-71
2022/01/03 10:46:52;;;;;;;5.00;1.70;;;;;;;7.44;84.28;98652.22;209481;1317;140815;-71
2022/01/03 10:52:16;;;;;;;1.50;1.20;;;;;;;7.43;84.19;98657.30;207744;1316;140709;-72
2022/01/03 10:57:18;;;;;;;1.40;1.30;;;;;;;7.41;84.20;98655.02;209112;1316;140255;-70
2022/01/03 11:02:21;;;;;;;2.00;1.60;;;;;;;7.37;84.42;98659.52;208248;1316;140932;-69
2022/01/03 11:12:35;;;;;;;2.50;2.40;;;;;;;7.32;84.46;98662.91;207166;1318;159844;-70
2022/01/03 11:17:38;;;;;;;1.60;1.50;;;;;;;7.30;84.32;98663.55;208875;1318;141226;-72
2022/01/03 11:22:47;;;;;;;2.70;2.50;;;;;;;7.21;84.54;98660.48;208323;1317;140975;-72
2022/01/03 11:27:51;;;;;;;2.40;2.20;;;;;;;7.17;84.62;98660.30;207425;1317;142518;-71
2022/01/03 11:32:55;;;;;;;2.80;2.60;;;;;;;7.16;84.58;98662.88;206899;1317;141016;-71
2022/01/03 11:38:01;;;;;;;2.30;1.60;;;;;;;7.11;84.80;98672.97;206676;1316;140942;-70
2022/01/03 11:43:10;;;;;;;2.80;1.50;;;;;;;7.10;85.05;98687.05;207526;1316;142995;-71
2022/01/03 11:48:16;;;;;;;0.80;0.80;;;;;;;7.05;84.84;98697.14;206985;1318;140099;-71
2022/01/03 11:53:20;;;;;;;1.60;1.50;;;;;;;6.99;85.15;98714.79;206991;1318;140785;-71
2022/01/03 11:58:53;;;;;;;2.10;2.00;;;;;;;6.93;84.90;98727.07;207120;1318;140386;-69
2022/01/03 12:04:08;;;;;;;2.70;2.50;;;;;;;6.90;84.96;98750.80;207024;1316;140083;-70
2022/01/03 12:09:31;;;;;;;1.20;1.20;;;;;;;6.86;85.01;98754.21;207546;1319;140927;-73
2022/01/03 12:14:46;;;;;;;2.90;1.30;;;;;;;6.83;84.86;98765.05;207231;1316;140491;-74
2022/01/03 12:20:03;;;;;;;3.00;1.30;;;;;;;6.80;84.63;98773.73;207635;1316;140012;-73
2022/01/03 12:25:06;;;;;;;1.70;1.60;;;;;;;6.76;85.06;98783.45;207527;1316;140791;-72
2022/01/03 12:30:32;;;;;;;5.30;3.00;;;;;;;6.71;85.03;98792.42;207172;1316;140623;-70
2022/01/03 12:35:38;;;;;;;2.50;2.30;;;;;;;6.70;85.11;98800.92;207808;1316;141842;-74
2022/01/03 12:41:01;;;;;;;4.00;2.80;;;;;;;6.70;85.07;98809.10;207098;1316;142301;-71
2022/01/03 12:46:27;;;;;;;4.10;2.20;;;;;;;6.73;85.34;98819.83;208269;1317;142860;-72
2022/01/03 12:52:18;;;;;;;4.60;2.40;;;;;;;6.71;85.28;98827.49;208098;1316;139969;-71
2022/01/03 12:57:54;;;;;;;3.40;1.90;;;;;;;6.67;85.24;98833.44;208750;1320;140538;-72
2022/01/03 13:03:42;;;;;;;2.10;1.70;;;;;;;6.68;84.93;98832.04;208010;1318;140413;-76
2022/01/03 13:08:48;;;;;;;3.20;2.20;;;;;;;6.71;85.13;98845.30;207807;1319;142410;-72
2022/01/03 13:14:03;;;;;;;2.60;2.40;;;;;;;6.74;84.89;98846.17;207958;1316;141676;-72
2022/01/03 13:19:25;;;;;;;9.90;9.10;;;;;;;6.80;85.54;98855.15;206873;1316;141757;-70
2022/01/03 13:24:35;;;;;;;4.00;3.20;;;;;;;6.79;85.23;98864.34;208428;1316;139732;-69
2022/01/03 13:29:48;;;;;;;3.50;3.30;;;;;;;6.80;85.23;98880.73;207324;1317;141152;-71
2022/01/03 13:35:12;;;;;;;4.60;3.10;;;;;;;6.84;85.37;98880.47;207379;1319;234274;-68
2022/01/03 13:40:21;;;;;;;2.70;2.40;;;;;;;6.88;85.60;98887.94;207632;1317;140862;-73
2022/01/03 13:50:50;;;;;;;5.70;4.60;;;;;;;7.00;85.60;98891.39;206899;1318;139504;-73
2022/01/03 13:55:58;;;;;;;3.30;2.10;;;;;;;7.02;85.50;98893.81;204520;1316;3611360;-70
2022/01/03 14:01:05;;;;;;;;;;;;;;;7.01;85.49;98889.80;206945;1317;140867;-73
2022/01/03 14:06:39;;;;;;;22.20;13.50;;;;;;;6.94;85.94;98889.34;208162;1317;127287;-71
2022/01/03 14:12:01;;;;;;;5.30;4.60;;;;;;;6.91;85.99;98895.73;207238;1318;140038;-67
2022/01/03 14:17:30;;;;;;;3.80;2.90;;;;;;;6.93;85.73;98893.77;207315;1317;152661;-70
2022/01/03 14:22:36;;;;;;;4.00;3.70;;;;;;;6.92;85.87;98900.38;207904;1316;141118;-73
2022/01/03 14:27:47;;;;;;;;;;;;;;;6.93;85.54;98905.74;207898;1316;141159;-72
2022/01/03 14:32:54;;;;;;;5.80;3.90;;;;;;;6.91;85.73;98907.81;207673;1316;128733;-68
2022/01/03 14:38:06;;;;;;;3.40;3.20;;;;;;;6.94;85.85;98910.63;208478;1316;142185;-73
2022/01/03 14:43:12;;;;;;;3.50;2.90;;;;;;;6.92;85.82;98911.06;208073;1318;141327;-74
2022/01/03 14:48:23;;;;;;;6.00;3.70;;;;;;;6.93;85.74;98922.86;207316;1315;142075;-74
2022/01/03 14:53:31;;;;;;;4.80;4.00;;;;;;;6.94;85.66;98929.34;209171;1316;140857;-71
2022/01/03 14:58:38;;;;;;;5.90;3.70;;;;;;;6.96;85.78;98931.09;207258;1317;140496;-74
2022/01/03 15:03:41;;;;;;;5.80;3.80;;;;;;;6.99;85.83;98932.91;207462;1316;140738;-74
2022/01/03 15:08:45;;;;;;;5.40;4.50;;;;;;;6.99;86.03;98936.88;209202;1316;140656;-75
2022/01/03 15:13:49;;;;;;;6.30;4.00;;;;;;;6.99;85.82;98940.86;208305;1318;140577;-75
2022/01/03 15:18:54;;;;;;;9.70;4.60;;;;;;;7.00;85.79;98935.27;208679;1317;141107;-73
2022/01/03 15:24:00;;;;;;;8.70;4.80;;;;;;;7.03;85.86;98940.61;208216;1314;139887;-73
2022/01/03 15:29:03;;;;;;;5.40;4.50;;;;;;;7.07;85.99;98940.86;207863;1318;141512;-74
2022/01/03 15:34:06;;;;;;;8.00;4.10;;;;;;;7.07;85.90;98939.69;207469;1317;142098;-73
2022/01/03 15:39:09;;;;;;;13.00;6.30;;;;;;;7.09;85.89;98941.23;206746;1318;141439;-71
2022/01/03 15:44:15;;;;;;;8.90;4.10;;;;;;;7.07;86.03;98944.94;206869;1318;141551;-76
2022/01/03 15:49:19;;;;;;;17.80;5.30;;;;;;;7.07;86.12;98948.40;207391;1318;141948;-74
2022/01/03 15:54:31;;;;;;;10.20;6.20;;;;;;;7.09;86.08;98954.97;207056;1317;141159;-72
2022/01/03 15:59:37;;;;;;;9.90;6.20;;;;;;;7.10;86.16;98956.47;207590;1315;142932;-73
2022/01/03 16:04:43;;;;;;;10.50;5.20;;;;;;;7.09;86.32;98953.30;207330;1316;140818;-70
2022/01/03 16:09:47;;;;;;;9.50;5.70;;;;;;;7.06;86.09;98951.60;206615;1316;141415;-71
2022/01/03 16:14:50;;;;;;;7.30;5.60;;;;;;;7.01;85.90;98950.55;207242;1318;141269;-71
2022/01/03 16:19:57;;;;;;;7.80;4.70;;;;;;;6.96;86.21;98949.59;207366;1316;141488;-71
2022/01/03 16:25:00;;;;;;;7.20;5.40;;;;;;;6.94;85.92;98944.48;206634;1316;151990;-72
2022/01/03 16:30:04;;;;;;;11.80;4.20;;;;;;;6.92;86.15;98942.69;208314;1316;141297;-72
2022/01/03 16:35:08;;;;;;;6.80;4.40;;;;;;;6.90;86.13;98944.89;206744;1316;141022;-72
2022/01/03 16:40:22;;;;;;;8.90;3.40;;;;;;;6.91;86.20;98943.89;207485;1316;140036;-71
2022/01/03 16:45:27;;;;;;;4.60;3.70;;;;;;;6.87;85.75;98942.70;206941;1316;141556;-73
2022/01/03 16:50:31;;;;;;;14.60;5.20;;;;;;;6.79;85.46;98942.98;209093;1314;140754;-73
2022/01/03 16:55:35;;;;;;;11.50;4.70;;;;;;;6.75;85.86;98943.78;208554;1317;140105;-73
2022/01/03 17:00:47;;;;;;;9.50;4.60;;;;;;;6.69;85.96;98941.13;209077;1316;141449;-73
2022/01/03 17:05:51;;;;;;;12.10;5.20;;;;;;;6.73;85.93;98931.23;209075;1316;140177;-73
2022/01/03 17:10:59;;;;;;;13.20;4.70;;;;;;;6.78;86.06;98927.48;207943;1316;140003;-70
2022/01/03 17:16:04;;;;;;;11.10;5.80;;;;;;;6.79;85.70;98927.50;209237;1317;139853;-70
2022/01/03 17:21:08;;;;;;;16.60;7.40;;;;;;;6.78;85.24;98931.23;207655;1316;140856;-72
2022/01/03 17:26:14;;;;;;;18.10;7.10;;;;;;;6.74;85.38;98924.65;207764;1316;140194;-70
2022/01/03 17:31:21;;;;;;;15.90;6.80;;;;;;;6.68;85.54;98925.78;207042;1316;141186;-68
2022/01/03 17:36:27;;;;;;;18.80;7.60;;;;;;;6.67;85.50;98928.82;206973;1317;140045;-71
2022/01/03 17:41:30;;;;;;;12.10;7.60;;;;;;;6.69;85.60;98931.35;207588;1318;141220;-70
2022/01/03 17:46:34;;;;;;;18.00;8.00;;;;;;;6.65;85.36;98930.48;207933;1316;152362;-70
2022/01/03 17:51:37;;;;;;;12.70;7.40;;;;;;;6.61;85.37;98930.80;207120;1316;140268;-69
2022/01/03 17:56:41;;;;;;;10.30;5.50;;;;;;;6.57;85.54;98920.90;207101;1318;140442;-69
2022/01/03 18:02:01;;;;;;;9.20;4.80;;;;;;;6.54;85.35;98936.34;206848;1316;143761;-69
2022/01/03 18:07:05;;;;;;;15.70;5.70;;;;;;;6.51;85.37;98937.37;207198;1316;140739;-68
2022/01/03 18:12:09;;;;;;;8.80;5.20;;;;;;;6.50;85.88;98938.29;208010;1316;141091;-68
2022/01/03 18:17:17;;;;;;;11.00;4.90;;;;;;;6.51;85.78;98943.61;207224;1317;140210;-68
2022/01/03 18:22:20;;;;;;;11.10;5.20;;;;;;;6.50;85.35;98943.45;206794;1317;140420;-67
2022/01/03 18:27:24;;;;;;;13.50;4.80;;;;;;;6.49;85.67;98945.64;207024;1316;139944;-68
2022/01/03 18:32:27;;;;;;;10.90;5.40;;;;;;;6.50;85.76;98946.30;208221;1316;139351;-72
2022/01/03 18:37:31;;;;;;;14.90;5.60;;;;;;;6.49;85.51;98942.13;207418;1315;141306;-70
2022/01/03 18:42:37;;;;;;;8.70;4.20;;;;;;;6.48;85.56;98927.08;206890;1316;140730;-69
2022/01/03 18:47:52;;;;;;;;;;;;;;;;;;;;;
2022/01/03 18:52:56;;;;;;;8.10;3.60;;;;;;;6.35;85.53;98917.88;209021;1315;140181;-73
2022/01/03 18:58:01;;;;;;;9.00;3.60;;;;;;;6.28;85.40;98910.55;207411;1319;231340;-73
2022/01/03 19:03:33;;;;;;;5.80;3.70;;;;;;;6.22;85.31;98904.95;209096;1315;140950;-70
2022/01/03 19:08:37;;;;;;;7.90;3.60;;;;;;;6.16;85.58;98897.34;208569;1317;141158;-69
2022/01/03 19:13:40;;;;;;;7.30;4.10;;;;;;;6.12;85.63;98900.79;209316;1317;140243;-70
2022/01/03 19:18:46;;;;;;;8.40;2.90;;;;;;;6.12;84.87;98893.90;208436;1319;141819;-68
2022/01/03 19:23:49;;;;;;;5.20;3.70;;;;;;;6.13;85.24;98883.34;208781;1315;140846;-71
2022/01/03 19:28:55;;;;;;;10.60;5.60;;;;;;;6.12;85.30;98869.45;208904;1316;140334;-73
2022/01/03 19:39:24;;;;;;;15.50;6.70;;;;;;;6.08;85.41;98864.19;208161;1318;141099;-73
2022/01/03 19:44:28;;;;;;;10.60;6.10;;;;;;;6.07;85.58;98866.27;207511;1318;142567;-73
2022/01/03 19:49:31;;;;;;;9.60;7.00;;;;;;;6.02;85.41;98865.68;207346;1315;140769;-69
2022/01/03 19:54:37;;;;;;;11.20;8.10;;;;;;;6.01;85.44;98866.69;207236;1316;141721;-72
2022/01/03 19:59:41;;;;;;;18.10;7.20;;;;;;;6.03;85.84;98858.08;206984;1315;141188;-72
2022/01/03 20:04:44;;;;;;;16.60;8.60;;;;;;;6.04;85.68;98858.38;207739;1315;142319;-72
2022/01/03 20:09:48;;;;;;;14.10;7.10;;;;;;;6.06;85.88;98854.61;207445;1316;142516;-73
2022/01/03 20:15:04;;;;;;;20.10;9.40;;;;;;;6.05;85.66;98852.05;207100;1316;152899;-70
2022/01/03 20:20:15;;;;;;;15.70;8.50;;;;;;;6.08;86.22;98855.03;207202;1315;141695;-72
2022/01/03 20:25:21;;;;;;;17.20;8.10;;;;;;;6.08;85.63;98851.81;207503;1316;142005;-71
2022/01/03 20:30:29;;;;;;;18.40;6.30;;;;;;;6.07;85.83;98852.77;207022;1315;140990;-72
2022/01/03 20:35:33;;;;;;;18.40;7.20;;;;;;;6.04;85.80;98849.17;208643;1315;140552;-70
2022/01/03 20:40:40;;;;;;;14.80;6.30;;;;;;;6.06;85.23;98846.67;208028;1318;141292;-69
2022/01/03 20:45:51;;;;;;;13.40;6.50;;;;;;;6.05;85.76;98841.56;208390;1317;221918;-72
2022/01/03 20:51:00;;;;;;;13.80;6.60;;;;;;;6.06;85.42;98838.45;207467;1318;140033;-71
2022/01/03 20:56:03;;;;;;;10.50;6.10;;;;;;;6.10;85.49;98838.92;207802;1318;141710;-72
2022/01/03 21:01:06;;;;;;;14.40;8.30;;;;;;;6.13;85.23;98841.05;207309;1316;140980;-74
2022/01/03 21:06:10;;;;;;;12.60;4.60;;;;;;;6.12;85.65;98839.13;208207;1316;141241;-70
2022/01/03 21:11:12;;;;;;;14.10;5.10;;;;;;;6.12;85.47;98834.63;208601;1317;140882;-71
2022/01/03 21:16:15;;;;;;;15.20;5.00;;;;;;;6.21;85.28;98836.65;208442;1317;141135;-73
2022/01/03 21:21:27;;;;;;;12.10;5.00;;;;;;;6.26;85.35;98830.63;209343;1315;142440;-71
2022/01/03 21:26:31;;;;;;;10.10;5.40;;;;;;;6.32;85.18;98827.48;208127;1317;141310;-72
2022/01/03 21:31:34;;;;;;;12.70;4.30;;;;;;;6.31;85.02;98819.44;208802;1318;140596;-69
2022/01/03 21:36:44;;;;;;;10.10;3.90;;;;;;;6.36;85.14;98818.34;207793;1318;142603;-71
2022/01/03 21:41:50;;;;;;;7.10;5.30;;;;;;;6.40;85.10;98817.22;208116;1316;141208;-69
2022/01/03 21:47:02;;;;;;;5.10;2.00;;;;;;;6.40;85.01;98816.15;207736;1315;140105;-71
2022/01/03 21:52:07;;;;;;;9.80;4.20;;;;;;;6.42;84.71;98811.33;207189;1318;754920;-71
2022/01/03 21:57:13;;;;;;;7.30;4.50;;;;;;;6.47;85.22;98810.92;207465;1318;141360;-71
2022/01/03 22:02:29;;;;;;;10.70;3.50;;;;;;;6.47;84.90;98811.66;207266;1316;140350;-70
2022/01/03 22:07:36;;;;;;;13.90;8.00;;;;;;;6.50;84.81;98818.53;207451;1316;141951;-71
2022/01/03 22:13:03;;;;;;;6.40;3.40;;;;;;;6.50;84.51;98816.17;207116;1317;139546;-73
2022/01/03 22:18:07;;;;;;;5.20;3.50;;;;;;;6.46;84.87;98807.36;207245;1316;139248;-73
2022/01/03 22:23:18;;;;;;;5.20;2.80;;;;;;;6.48;84.74;98806.63;207433;1317;140123;-71
2022/01/03 22:28:27;;;;;;;10.70;3.70;;;;;;;6.43;84.48;98796.95;206975;1315;140478;-68
2022/01/03 22:33:36;;;;;;;5.80;3.80;;;;;;;6.37;84.55;98799.03;206967;1315;140290;-73
2022/01/03 22:38:43;;;;;;;10.70;3.30;;;;;;;6.35;84.62;98801.74;207590;1317;142720;-72
2022/01/03 22:43:47;;;;;;;;;;;;;;;6.36;84.43;98803.14;207444;1316;141043;-69
2022/01/03 22:48:51;;;;;;;9.60;5.40;;;;;;;6.31;84.38;98802.91;208667;1316;128012;-72
2022/01/03 22:53:58;;;;;;;6.90;3.70;;;;;;;6.29;84.48;98796.63;207697;1316;142241;-70
2022/01/03 22:59:06;;;;;;;6.50;3.60;;;;;;;6.30;84.43;98792.94;207044;1316;141645;-72
2022/01/03 23:04:12;;;;;;;16.40;5.10;;;;;;;6.30;84.39;98791.14;207822;1318;142174;-73
2022/01/03 23:09:16;;;;;;;12.20;4.20;;;;;;;6.26;84.13;98786.13;208588;1316;139846;-72
2022/01/03 23:14:20;;;;;;;6.30;4.70;;;;;;;6.23;84.03;98776.98;209388;1315;140796;-72
2022/01/03 23:19:34;;;;;;;18.70;6.70;;;;;;;6.21;84.00;98763.33;208969;1318;142195;-75
2022/01/03 23:25:05;;;;;;;12.10;4.60;;;;;;;6.19;83.41;98762.35;208220;1317;140523;-74
2022/01/03 23:30:13;;;;;;;11.10;4.50;;;;;;;6.06;83.42;98760.54;208136;1317;141104;-79
2022/01/03 23:35:17;;;;;;;;;;;;;;;5.98;83.59;98756.64;207200;1316;142230;-72
2022/01/03 23:40:22;;;;;;;12.60;5.70;;;;;;;5.87;83.74;98750.68;209837;1315;126413;-78
2022/01/03 23:45:25;;;;;;;8.40;4.30;;;;;;;5.84;83.72;98745.35;208229;1318;140617;-74
2022/01/03 23:50:30;;;;;;;15.20;3.90;;;;;;;5.78;83.46;98737.78;206920;1318;140226;-68
2022/01/03 23:55:32;;;;;;;7.20;4.10;;;;;;;5.73;83.45;98733.65;208203;1318;140906;-80
